Time;durP1;ratioP1;P1;durP2;ratioP2;P2;SDS_P1;SDS_P2;PMS_P1;PMS_P2;Temp;Humidity;BMP_temperature;BMP_pressure;BME280_temperature;BME280_humidity;BME280_pressure;Samples;Min_cycle;Max_cycle;Signal;HPM_P1;HPM_P2
2021/05/08 00:02:11;;;;;;;0.70;0.70;;;2.80;99.90;;;2.95;100.00;-20762.16;4988509;28;20200;-69
2021/05/08 00:04:38;;;;;;;0.75;0.68;;;2.80;99.90;;;2.89;100.00;-20760.75;4977677;28;20695;-69
2021/05/08 00:07:06;;;;;;;0.80;0.70;;;2.70;99.90;;;2.87;100.00;-20760.22;4993730;28;20195;-69
2021/05/08 00:09:34;;;;;;;0.70;0.65;;;2.60;99.90;;;2.93;100.00;-20761.75;4993752;28;20231;-69
2021/05/08 00:12:06;;;;;;;0.75;0.70;;;2.70;99.90;;;2.84;100.00;-20759.22;4994164;28;20263;-69
2021/05/08 00:14:33;;;;;;;1.15;1.05;;;2.70;99.90;;;2.80;100.00;-20758.25;4998110;28;20222;-69
2021/05/08 00:17:00;;;;;;;0.77;0.70;;;2.70;99.90;;;2.77;100.00;-20757.28;4997501;28;20663;-69
2021/05/08 00:19:27;;;;;;;0.70;0.60;;;2.60;99.90;;;2.71;100.00;-20755.75;5008520;28;20195;-69
2021/05/08 00:21:54;;;;;;;0.70;0.60;;;2.60;99.90;;;2.66;100.00;-20754.34;5011482;28;20203;-69
2021/05/08 00:24:22;;;;;;;0.70;0.68;;;2.50;99.90;;;2.59;100.00;-20752.53;4980780;28;20278;-69
2021/05/08 00:26:50;;;;;;;0.70;0.60;;;2.40;99.90;;;2.61;100.00;-20752.94;5000387;28;20179;-68
2021/05/08 00:29:17;;;;;;;0.73;0.63;;;2.40;99.90;;;2.67;100.00;-20754.63;5017564;28;20205;-69
2021/05/08 00:31:45;;;;;;;0.70;0.60;;;2.40;99.90;;;2.73;100.00;-20756.31;4983518;28;20705;-69
2021/05/08 00:34:12;;;;;;;0.70;0.70;;;2.50;99.90;;;2.79;100.00;-20757.97;5017414;28;20206;-70
2021/05/08 00:36:39;;;;;;;0.70;0.70;;;2.50;99.90;;;2.75;100.00;-20756.72;4997593;28;20179;-69
2021/05/08 00:39:06;;;;;;;0.70;0.60;;;2.50;99.90;;;2.75;100.00;-20756.84;4999186;28;20261;-69
2021/05/08 00:41:36;;;;;;;0.70;0.60;;;2.50;99.90;;;2.71;100.00;-20755.59;4999083;28;20241;-69
2021/05/08 00:44:06;;;;;;;0.70;0.70;;;2.50;99.90;;;2.66;100.00;-20754.50;4984030;28;20594;-70
2021/05/08 00:46:35;;;;;;;0.80;0.70;;;2.40;99.90;;;2.75;100.00;-20756.72;4983535;28;20205;-70
2021/05/08 00:49:05;;;;;;;0.70;0.60;;;2.50;99.90;;;2.77;100.00;-20757.41;4999639;28;20624;-70
2021/05/08 00:51:33;;;;;;;0.80;0.70;;;2.60;99.90;;;2.71;100.00;-20755.75;4979795;28;20253;-71
2021/05/08 00:54:00;;;;;;;0.73;0.60;;;2.50;99.90;;;2.72;100.00;-20755.88;4991600;28;20223;-69
2021/05/08 00:56:29;;;;;;;0.70;0.65;;;2.50;99.90;;;2.71;100.00;-20755.59;4980297;28;20183;-69
2021/05/08 00:58:57;;;;;;;0.80;0.75;;;2.60;99.90;;;2.61;100.00;-20752.94;4997269;28;20218;-69
2021/05/08 01:01:25;;;;;;;0.70;0.60;;;2.40;99.90;;;2.56;100.00;-20751.56;4979437;28;20203;-70
2021/05/08 01:03:54;;;;;;;0.70;0.60;;;2.30;99.90;;;2.44;100.00;-20748.22;4996055;28;20199;-69
2021/05/08 01:06:22;;;;;;;0.75;0.60;;;2.20;99.90;;;2.38;100.00;-20746.81;4996822;28;20199;-70
2021/05/08 01:08:50;;;;;;;0.70;0.60;;;2.10;99.90;;;2.51;100.00;-20750.16;4976069;28;20299;-70
2021/05/08 01:11:18;;;;;;;0.70;0.60;;;2.10;99.90;;;2.44;100.00;-20748.34;4977301;28;20208;-70
2021/05/08 01:13:47;;;;;;;0.70;0.60;;;2.20;99.90;;;2.46;100.00;-20748.75;4960093;28;20212;-70
2021/05/08 01:16:15;;;;;;;0.80;0.70;;;2.20;99.90;;;2.40;100.00;-20747.22;4978447;28;20199;-70
2021/05/08 01:18:42;;;;;;;0.70;0.60;;;2.10;99.90;;;2.39;100.00;-20747.09;4996678;28;20538;-70
2021/05/08 01:21:17;;;;;;;0.80;0.70;;;2.10;99.90;;;2.34;100.00;-20745.69;4979171;28;20246;-69
2021/05/08 01:23:44;;;;;;;0.80;0.70;;;2.10;99.90;;;2.42;100.00;-20747.94;4990314;28;20208;-69
2021/05/08 01:26:13;;;;;;;0.75;0.70;;;2.10;99.90;;;2.51;100.00;-20750.16;4976255;28;20210;-69
2021/05/08 01:28:40;;;;;;;0.80;0.70;;;2.20;99.90;;;2.45;100.00;-20748.63;4977052;28;20246;-69
2021/05/08 01:31:10;;;;;;;0.70;0.60;;;2.20;99.90;;;2.49;100.00;-20749.59;4994965;28;20282;-70
2021/05/08 01:34:00;;;;;;;0.70;0.60;;;2.20;99.90;;;2.59;100.00;-20752.53;4984101;28;20211;-69
2021/05/08 01:36:28;;;;;;;0.77;0.70;;;2.20;99.90;;;2.56;100.00;-20751.56;4979167;28;20199;-69
2021/05/08 01:38:56;;;;;;;0.80;0.70;;;2.30;99.90;;;2.48;100.00;-20749.31;4978917;28;20226;-69
2021/05/08 01:41:23;;;;;;;0.70;0.60;;;2.20;99.90;;;2.37;100.00;-20746.38;4995005;28;20192;-69
2021/05/08 01:43:51;;;;;;;0.73;0.63;;;2.10;99.90;;;2.31;100.00;-20744.84;4995467;28;20207;-69
2021/05/08 01:46:18;;;;;;;0.70;0.68;;;2.00;99.90;;;2.28;100.00;-20744.00;4996119;28;20246;-68
2021/05/08 01:48:45;;;;;;;0.75;0.70;;;2.00;99.90;;;2.30;100.00;-20744.56;4979057;28;20199;-69
2021/05/08 01:51:13;;;;;;;0.70;0.70;;;2.00;99.90;;;2.26;100.00;-20743.47;5003464;28;20694;-69
2021/05/08 01:53:41;;;;;;;0.70;0.60;;;1.90;99.90;;;2.28;100.00;-20744.00;4997729;28;20235;-69
2021/05/08 01:56:09;;;;;;;0.70;0.70;;;2.00;99.90;;;2.33;100.00;-20745.41;4998070;28;20199;-69
2021/05/08 01:58:37;;;;;;;0.70;0.60;;;2.00;99.90;;;2.39;100.00;-20747.09;5015212;28;20187;-69
2021/05/08 02:01:06;;;;;;;0.80;0.70;;;2.00;99.90;;;2.42;100.00;-20747.94;5011983;28;20188;-70
2021/05/08 02:03:42;;;;;;;0.70;0.60;;;2.00;99.90;;;2.42;100.00;-20747.94;4975302;28;20180;-69
2021/05/08 02:06:12;;;;;;;0.77;0.70;;;2.00;99.90;;;2.45;100.00;-20748.47;4975193;28;20675;-69
2021/05/08 02:08:48;;;;;;;0.80;0.70;;;2.00;99.90;;;2.42;100.00;-20747.94;4976322;28;20274;-69
2021/05/08 02:11:25;;;;;;;0.80;0.68;;;2.00;99.90;;;2.36;100.00;-20746.13;4960257;28;20196;-69
2021/05/08 02:13:53;;;;;;;0.70;0.60;;;2.00;99.90;;;2.35;100.00;-20745.81;4959654;28;20613;-69
2021/05/08 02:16:20;;;;;;;0.70;0.60;;;2.00;99.90;;;2.36;100.00;-20746.25;4999033;28;20202;-69
2021/05/08 02:18:47;;;;;;;0.70;0.70;;;2.10;99.90;;;2.40;100.00;-20747.38;5015010;28;20543;-69
2021/05/08 02:21:14;;;;;;;0.75;0.70;;;2.20;99.90;;;2.40;100.00;-20747.22;4997338;28;20195;-69
2021/05/08 02:23:45;;;;;;;0.73;0.63;;;2.20;99.90;;;2.47;100.00;-20749.03;4998506;28;20211;-69
2021/05/08 02:26:14;;;;;;;0.73;0.65;;;2.20;99.90;;;2.45;100.00;-20748.47;4994231;28;20286;-69
2021/05/08 02:28:42;;;;;;;0.70;0.60;;;2.20;99.90;;;2.53;100.00;-20750.72;4995355;28;20184;-71
2021/05/08 02:31:09;;;;;;;0.70;0.70;;;2.30;99.90;;;2.54;100.00;-20751.00;4994229;28;20660;-69
2021/05/08 02:33:37;;;;;;;0.70;0.60;;;2.40;99.90;;;2.62;100.00;-20753.22;4994153;28;20202;-69
2021/05/08 02:36:04;;;;;;;0.70;0.60;;;2.40;99.90;;;2.61;100.00;-20752.94;4977456;28;20290;-69
2021/05/08 02:38:32;;;;;;;0.80;0.70;;;2.40;99.90;;;2.85;100.00;-20759.66;4994811;28;20215;-69
2021/05/08 02:41:00;;;;;;;0.70;0.70;;;2.50;99.90;;;2.99;100.00;-20763.28;4994771;28;20226;-70
2021/05/08 02:43:30;;;;;;;0.75;0.68;;;2.70;99.90;;;3.42;100.00;-20775.00;4997230;28;20194;-69
2021/05/08 02:46:06;;;;;;;0.73;0.60;;;3.10;99.90;;;3.65;100.00;-20781.41;4996904;28;20194;-69
2021/05/08 02:48:34;;;;;;;0.70;0.70;;;3.30;99.90;;;3.66;100.00;-20781.56;5006264;28;20187;-69
2021/05/08 02:51:02;;;;;;;0.70;0.60;;;3.30;99.90;;;3.65;100.00;-20781.41;4996503;28;20207;-69
2021/05/08 02:53:29;;;;;;;0.70;0.60;;;3.30;99.90;;;3.68;100.00;-20782.09;4983656;28;20541;-69
2021/05/08 02:55:58;;;;;;;0.80;0.70;;;3.40;99.90;;;3.84;100.00;-20786.56;4997035;28;20179;-69
2021/05/08 02:58:33;;;;;;;0.70;0.60;;;3.50;99.90;;;3.91;100.00;-20788.38;4981776;28;20184;-69
2021/05/08 03:01:01;;;;;;;0.80;0.70;;;3.60;99.90;;;3.90;100.00;-20788.25;4995069;28;20282;-69
2021/05/08 03:03:29;;;;;;;0.77;0.70;;;3.60;99.90;;;3.86;100.00;-20787.13;4992022;28;20199;-69
2021/05/08 03:05:56;;;;;;;0.80;0.70;;;3.60;99.90;;;3.82;100.00;-20786.16;4977468;28;20212;-70
2021/05/08 03:08:31;;;;;;;0.73;0.70;;;3.60;99.90;;;3.76;100.00;-20784.34;4978147;28;20219;-69
2021/05/08 03:11:03;;;;;;;0.70;0.60;;;3.50;99.90;;;3.69;100.00;-20782.53;4993332;28;20215;-70
2021/05/08 03:13:33;;;;;;;0.70;0.60;;;3.40;99.90;;;3.69;100.00;-20782.53;4993290;28;20672;-69
2021/05/08 03:16:00;;;;;;;0.70;0.60;;;3.40;99.90;;;3.63;100.00;-20780.84;4995017;28;20270;-70
2021/05/08 03:18:28;;;;;;;0.80;0.80;;;3.30;99.90;;;3.48;100.00;-20776.66;4992599;28;20230;-69
2021/05/08 03:20:55;;;;;;;0.70;0.63;;;3.20;99.90;;;3.36;100.00;-20773.59;4977051;28;20283;-69
2021/05/08 03:23:24;;;;;;;0.70;0.60;;;3.00;99.90;;;3.25;100.00;-20770.53;4976378;28;20220;-69
2021/05/08 03:25:51;;;;;;;0.70;0.60;;;2.90;99.90;;;3.16;100.00;-20768.03;4994252;28;20219;-69
2021/05/08 03:28:19;;;;;;;0.70;0.60;;;2.90;99.90;;;3.11;100.00;-20766.75;4998249;28;20667;-69
2021/05/08 03:30:48;;;;;;;0.70;0.60;;;2.90;99.90;;;3.10;100.00;-20766.34;5013682;28;20218;-69
2021/05/08 03:33:15;;;;;;;0.85;0.68;;;2.80;99.90;;;3.07;100.00;-20765.66;5007201;28;20215;-69
2021/05/08 03:35:42;;;;;;;0.70;0.70;;;2.80;99.90;;;3.17;100.00;-20768.31;4976902;28;20195;-70
2021/05/08 03:38:09;;;;;;;0.70;0.60;;;2.90;99.90;;;3.17;100.00;-20768.31;5012993;28;20241;-69
2021/05/08 03:40:37;;;;;;;0.80;0.70;;;2.90;99.90;;;3.29;100.00;-20771.50;5012264;28;20549;-69
2021/05/08 03:43:03;;;;;;;0.70;0.60;;;3.00;99.90;;;3.35;100.00;-20773.31;5014281;28;20203;-69
2021/05/08 03:45:31;;;;;;;0.70;0.70;;;3.10;99.90;;;3.42;100.00;-20775.00;4979957;28;20201;-69
2021/05/08 03:48:05;;;;;;;0.80;0.70;;;3.10;99.90;;;3.36;100.00;-20773.59;4977521;28;20591;-69
2021/05/08 03:50:33;;;;;;;0.70;0.60;;;3.10;99.90;;;3.42;100.00;-20775.00;4992809;28;20199;-69
2021/05/08 03:53:00;;;;;;;0.73;0.70;;;3.10;99.90;;;3.36;100.00;-20773.59;4992604;28;20757;-69
2021/05/08 03:55:27;;;;;;;0.70;0.60;;;3.10;99.90;;;3.26;100.00;-20770.81;4994192;28;20194;-69
2021/05/08 03:57:54;;;;;;;0.70;0.60;;;3.00;99.90;;;3.25;100.00;-20770.53;4992507;28;20191;-69
2021/05/08 04:00:22;;;;;;;0.90;0.90;;;3.00;99.90;;;3.30;100.00;-20771.94;4993941;28;20246;-69
2021/05/08 04:02:49;;;;;;;0.73;0.70;;;3.00;99.90;;;3.38;100.00;-20774.16;4994132;28;20191;-69
2021/05/08 04:05:17;;;;;;;0.80;0.70;;;3.20;99.90;;;3.33;100.00;-20772.75;4994222;28;20549;-69
2021/05/08 04:07:44;;;;;;;0.70;0.60;;;3.10;99.90;;;3.41;100.00;-20774.72;4994973;28;20230;-69
2021/05/08 04:10:11;;;;;;;0.80;0.70;;;3.10;99.90;;;3.62;100.00;-20780.56;4976509;28;20195;-69
2021/05/08 04:12:38;;;;;;;0.70;0.68;;;3.30;99.90;;;3.59;100.00;-20779.88;4994027;28;20525;-70
2021/05/08 04:15:07;;;;;;;0.73;0.70;;;3.30;99.90;;;3.59;100.00;-20779.88;4976566;28;20529;-69
2021/05/08 04:17:34;;;;;;;0.70;0.60;;;3.30;99.90;;;3.67;100.00;-20781.97;4995180;28;20223;-69
2021/05/08 04:20:02;;;;;;;0.70;0.60;;;3.40;99.90;;;3.85;100.00;-20786.84;4994593;28;20238;-69
2021/05/08 04:22:30;;;;;;;0.70;0.60;;;3.60;99.90;;;4.05;100.00;-20792.44;4994148;28;20263;-68
2021/05/08 04:24:57;;;;;;;0.70;0.65;;;3.70;99.90;;;4.27;100.00;-20798.41;4993780;28;20191;-69
2021/05/08 04:27:24;;;;;;;0.80;0.70;;;3.90;99.90;;;4.26;100.00;-20798.13;5012532;28;20195;-68
2021/05/08 04:29:55;;;;;;;0.70;0.60;;;3.90;99.90;;;4.33;100.00;-20800.09;5013101;28;20183;-69
2021/05/08 04:32:22;;;;;;;0.70;0.70;;;3.90;99.90;;;4.26;100.00;-20798.13;5013508;28;20198;-69
2021/05/08 04:34:49;;;;;;;0.70;0.60;;;3.90;99.90;;;4.33;100.00;-20800.09;4993894;28;20211;-69
2021/05/08 04:37:16;;;;;;;0.80;0.70;;;3.90;99.90;;;4.35;100.00;-20800.66;4994853;28;20332;-69
2021/05/08 04:39:44;;;;;;;0.70;0.60;;;3.90;99.90;;;4.49;100.00;-20804.25;4993236;28;20280;-68
2021/05/08 04:42:12;;;;;;;0.70;0.60;;;4.00;99.90;;;4.60;100.00;-20807.34;4993494;28;20267;-69
2021/05/08 04:44:39;;;;;;;0.70;0.60;;;4.10;99.90;;;4.62;100.00;-20807.88;4992973;28;20187;-70
2021/05/08 04:47:07;;;;;;;0.70;0.60;;;4.10;99.90;;;4.77;100.00;-20811.94;5013415;28;20218;-69
2021/05/08 04:49:34;;;;;;;0.80;0.70;;;4.20;99.90;;;4.77;100.00;-20812.06;4979761;28;20651;-68
2021/05/08 04:52:01;;;;;;;0.70;0.68;;;4.30;99.90;;;4.77;100.00;-20812.06;5013148;28;20203;-69
2021/05/08 04:54:29;;;;;;;0.80;0.70;;;4.30;99.90;;;4.83;100.00;-20813.59;5011984;28;20207;-69
2021/05/08 04:56:56;;;;;;;0.73;0.60;;;4.30;99.90;;;4.92;100.00;-20815.97;4995662;28;20175;-69
2021/05/08 04:59:23;;;;;;;0.70;0.60;;;4.40;99.90;;;4.98;100.00;-20817.63;5015097;28;20171;-69
2021/05/08 05:01:50;;;;;;;0.70;0.68;;;4.50;99.90;;;5.17;100.00;-20822.78;5014867;28;20187;-69
2021/05/08 05:04:18;;;;;;;0.70;0.60;;;4.60;99.90;;;5.29;100.00;-20826.13;5000909;28;20270;-69
2021/05/08 05:06:45;;;;;;;0.70;0.60;;;4.70;99.90;;;5.43;100.00;-20829.88;4997210;28;20250;-69
2021/05/08 05:09:12;;;;;;;0.70;0.63;;;4.80;99.90;;;5.51;100.00;-20832.13;4995099;28;20290;-69
2021/05/08 05:11:39;;;;;;;0.70;0.60;;;4.90;99.90;;;5.51;100.00;-20832.25;4996629;28;20194;-69
2021/05/08 05:14:07;;;;;;;0.80;0.70;;;4.90;99.90;;;5.54;100.00;-20832.94;4978867;28;20679;-69
2021/05/08 05:16:34;;;;;;;0.80;0.70;;;4.90;99.90;;;5.58;100.00;-20834.06;4997043;28;20184;-69
2021/05/08 05:19:03;;;;;;;0.70;0.60;;;5.00;99.90;;;5.64;100.00;-20835.72;4971623;28;20191;-69
2021/05/08 05:21:31;;;;;;;0.70;0.60;;;5.00;99.90;;;5.66;100.00;-20836.28;4978665;28;20279;-69
2021/05/08 05:23:58;;;;;;;0.70;0.60;;;5.10;99.90;;;5.82;100.00;-20840.59;4999928;28;20219;-69
2021/05/08 05:26:26;;;;;;;0.70;0.60;;;5.20;99.90;;;6.00;100.00;-20845.63;5016145;28;20237;-70
2021/05/08 05:28:53;;;;;;;0.70;0.60;;;5.30;99.90;;;6.07;100.00;-20847.41;4990047;28;20679;-69
2021/05/08 05:31:21;;;;;;;0.70;0.70;;;5.40;99.90;;;6.18;100.00;-20850.47;4996412;28;20242;-69
2021/05/08 05:33:49;;;;;;;0.70;0.60;;;5.50;99.90;;;6.30;100.00;-20853.69;4978641;28;20581;-70
2021/05/08 05:36:16;;;;;;;0.70;0.60;;;5.60;99.90;;;6.48;100.00;-20858.69;4996512;28;20176;-69
2021/05/08 05:38:43;;;;;;;0.70;0.60;;;5.80;99.90;;;6.51;100.00;-20859.38;4997133;28;20633;-69
2021/05/08 05:41:10;;;;;;;0.70;0.70;;;6.00;99.90;;;6.77;100.00;-20866.59;4996554;28;20192;-70
2021/05/08 05:43:37;;;;;;;0.70;0.60;;;6.10;99.90;;;6.95;100.00;-20871.31;4995646;28;20210;-69
2021/05/08 05:46:04;;;;;;;0.70;0.60;;;6.20;99.90;;;7.16;100.00;-20877.16;4995108;28;20192;-70
2021/05/08 05:48:32;;;;;;;0.70;0.70;;;6.30;99.90;;;7.25;100.00;-20879.66;5000129;28;20191;-69
2021/05/08 05:50:59;;;;;;;0.70;0.60;;;6.40;99.90;;;7.46;100.00;-20885.34;5015992;28;20187;-70
2021/05/08 05:53:27;;;;;;;0.70;0.60;;;6.60;99.90;;;7.35;100.00;-20882.16;4997422;28;20650;-69
2021/05/08 05:55:54;;;;;;;0.70;0.60;;;6.50;99.90;;;7.18;100.00;-20877.56;4981969;28;20197;-69
2021/05/08 05:58:21;;;;;;;0.70;0.60;;;6.50;99.90;;;7.38;100.00;-20883.00;4988582;28;20186;-70
2021/05/08 06:00:49;;;;;;;0.70;0.60;;;6.50;99.90;;;7.36;100.00;-20882.44;4994971;28;20177;-68
2021/05/08 06:03:16;;;;;;;0.70;0.60;;;6.50;99.90;;;7.49;100.00;-20886.19;4995365;28;20206;-70
2021/05/08 06:05:44;;;;;;;0.70;0.60;;;6.70;99.90;;;7.49;100.00;-20886.03;4997218;28;20824;-68
2021/05/08 06:08:12;;;;;;;0.70;0.60;;;6.80;99.90;;;7.80;100.00;-20894.38;5008253;28;20472;-69
2021/05/08 06:10:39;;;;;;;0.70;0.60;;;6.90;99.90;;;7.88;100.00;-20896.75;5014584;28;21015;-69
2021/05/08 06:13:06;;;;;;;0.70;0.60;;;7.00;99.90;;;8.22;100.00;-20905.91;4986352;28;20454;-69
2021/05/08 06:15:33;;;;;;;0.70;0.60;;;7.30;99.90;;;8.23;100.00;-20906.16;4995975;28;20421;-69
2021/05/08 06:18:00;;;;;;;0.70;0.60;;;7.40;99.90;;;8.55;100.00;-20914.78;5006818;28;20445;-69
2021/05/08 06:20:27;;;;;;;0.70;0.60;;;7.50;99.90;;;8.50;100.00;-20913.38;4998557;28;20434;-69
2021/05/08 06:22:57;;;;;;;0.70;0.60;;;7.60;99.90;;;8.71;100.00;-20919.22;5010841;28;20557;-69
2021/05/08 06:25:24;;;;;;;0.70;0.60;;;7.80;99.90;;;8.68;100.00;-20918.50;5003510;28;20437;-68
2021/05/08 06:27:53;;;;;;;0.70;0.60;;;7.80;99.90;;;8.87;100.00;-20923.66;4997684;28;20425;-70
2021/05/08 06:30:21;;;;;;;0.70;0.60;;;7.90;99.90;;;9.16;100.00;-20931.41;4997861;28;20434;-69
2021/05/08 06:32:48;;;;;;;0.70;0.60;;;8.20;99.90;;;9.48;100.00;-20940.00;5014822;28;20426;-69
2021/05/08 06:35:15;;;;;;;0.70;0.60;;;8.40;99.90;;;9.73;100.00;-20946.78;4983522;28;20455;-70
2021/05/08 06:37:42;;;;;;;0.70;0.57;;;8.60;99.90;;;9.92;100.00;-20952.03;4995944;28;20473;-70
2021/05/08 06:40:11;;;;;;;0.70;0.60;;;8.90;99.90;;;10.40;100.00;-20965.06;5006539;28;20453;-70
2021/05/08 06:42:38;;;;;;;0.70;0.60;;;9.10;99.90;;;10.45;100.00;-20966.44;5014592;28;20488;-69
2021/05/08 06:45:06;;;;;;;0.70;0.60;;;9.30;99.90;;;10.34;100.00;-20963.41;5014263;28;20465;-69
2021/05/08 06:47:33;;;;;;;0.70;0.60;;;9.40;99.90;;;10.47;100.00;-20967.00;4997624;28;20440;-69
2021/05/08 06:50:00;;;;;;;0.70;0.60;;;9.30;99.90;;;10.59;100.00;-20970.19;4996917;28;20447;-71
2021/05/08 06:52:27;;;;;;;0.70;0.60;;;9.40;99.90;;;10.66;100.00;-20972.13;4998514;28;20911;-70
2021/05/08 06:54:54;;;;;;;0.70;0.60;;;9.40;99.90;;;10.95;100.00;-20980.00;4999346;28;20983;-70
2021/05/08 06:57:22;;;;;;;1.20;1.00;;;9.60;99.90;;;10.99;100.00;-20981.09;4996046;28;20460;-69
2021/05/08 06:59:50;;;;;;;0.70;0.60;;;9.60;99.90;;;10.95;100.00;-20980.00;4995186;28;20953;-69
2021/05/08 07:02:17;;;;;;;0.70;0.60;;;9.80;99.90;;;11.76;100.00;-21001.84;4961932;28;20475;-70
2021/05/08 07:04:44;;;;;;;0.70;0.60;;;10.10;99.90;;;11.75;100.00;-21001.56;4982348;28;20455;-70
2021/05/08 07:07:11;;;;;;;0.70;0.60;;;10.20;99.90;;;11.91;100.00;-21005.97;4994143;28;20514;-70
2021/05/08 07:09:38;;;;;;;0.70;0.60;;;10.50;99.90;;;12.04;100.00;-21009.56;4993859;28;20454;-69
2021/05/08 07:12:06;;;;;;;0.70;0.67;;;10.30;99.90;;;11.73;100.00;-21001.13;4982889;28;20426;-70
2021/05/08 07:14:34;;;;;;;0.70;0.70;;;10.20;99.90;;;11.85;100.00;-21004.47;4978667;28;20832;-70
2021/05/08 07:17:01;;;;;;;0.70;0.70;;;10.10;99.90;;;11.64;100.00;-20998.50;4994846;28;20446;-70
2021/05/08 07:19:28;;;;;;;0.70;0.60;;;10.20;98.80;;;11.83;100.00;-21003.91;4983573;28;20940;-70
2021/05/08 07:21:56;;;;;;;0.77;0.70;;;10.20;97.30;;;11.75;100.00;-21001.56;4994149;28;20447;-70
2021/05/08 07:24:23;;;;;;;0.70;0.60;;;10.30;97.20;;;11.87;100.00;-21004.88;4990243;28;20506;-70
2021/05/08 07:26:50;;;;;;;0.70;0.63;;;10.40;96.20;;;12.23;100.00;-21014.53;4994704;28;20444;-70
2021/05/08 07:29:19;;;;;;;0.70;0.60;;;10.40;95.50;;;11.88;100.00;-21005.00;4996498;28;20437;-70
2021/05/08 07:31:47;;;;;;;0.70;0.60;;;10.50;96.30;;;12.22;100.00;-21014.41;4997037;28;20475;-70
2021/05/08 07:34:14;;;;;;;0.70;0.60;;;10.70;95.50;;;12.39;100.00;-21018.97;5012366;28;20476;-70
2021/05/08 07:36:42;;;;;;;0.70;0.60;;;10.70;94.40;;;12.54;100.00;-21023.09;4997186;28;20448;-70
2021/05/08 07:39:09;;;;;;;0.80;0.67;;;10.80;94.40;;;12.48;100.00;-21021.44;4993218;28;20532;-69
2021/05/08 07:41:36;;;;;;;0.80;0.70;;;10.80;92.90;;;12.67;100.00;-21026.53;4991348;28;20438;-70
2021/05/08 07:44:07;;;;;;;0.70;0.60;;;10.90;93.00;;;13.29;100.00;-21043.25;4991196;28;20443;-70
2021/05/08 07:46:34;;;;;;;0.70;0.60;;;11.00;91.10;;;13.21;100.00;-21041.16;4992781;28;20442;-71
2021/05/08 07:49:03;;;;;;;0.80;0.70;;;11.30;91.00;;;13.02;100.00;-21035.94;4991915;28;20426;-70
2021/05/08 07:51:30;;;;;;;0.70;0.60;;;11.10;88.80;;;13.23;100.00;-21041.72;4974890;28;20813;-70
2021/05/08 07:53:57;;;;;;;0.80;0.70;;;11.10;89.10;;;13.51;100.00;-21049.31;4992144;28;20497;-71
2021/05/08 07:56:24;;;;;;;0.80;0.70;;;11.40;90.00;;;13.47;100.00;-21048.19;5006359;28;20475;-70
2021/05/08 07:58:51;;;;;;;0.73;0.63;;;11.70;90.30;;;13.68;100.00;-21053.72;4991221;28;20925;-71
2021/05/08 08:01:18;;;;;;;0.70;0.67;;;11.70;87.10;;;13.95;100.00;-21061.16;4992632;28;20425;-70
2021/05/08 08:03:46;;;;;;;0.70;0.70;;;11.80;85.40;;;13.96;100.00;-21061.44;4981175;28;20454;-70
2021/05/08 08:06:14;;;;;;;0.70;0.60;;;11.90;84.00;;;14.37;100.00;-21072.44;4994935;28;20772;-70
2021/05/08 08:08:41;;;;;;;0.80;0.70;;;12.20;84.00;;;14.60;100.00;-21078.50;4992714;28;20564;-71
2021/05/08 08:11:08;;;;;;;0.70;0.70;;;12.20;81.00;;;14.53;100.00;-21076.56;4992354;28;20448;-70
2021/05/08 08:13:35;;;;;;;0.70;0.60;;;12.20;80.00;;;14.65;100.00;-21079.88;4994057;28;20794;-70
2021/05/08 08:16:03;;;;;;;0.70;0.63;;;12.40;81.60;;;14.49;100.00;-21075.75;5008694;28;20434;-70
2021/05/08 08:18:30;;;;;;;0.70;0.67;;;12.60;79.80;;;14.70;100.00;-21081.41;4995675;28;20451;-70
2021/05/08 08:20:57;;;;;;;0.77;0.60;;;12.70;78.60;;;14.86;100.00;-21085.66;4995647;28;20438;-70
2021/05/08 08:23:25;;;;;;;0.80;0.67;;;12.80;75.60;;;15.02;100.00;-21089.94;5013476;28;20452;-71
2021/05/08 08:25:52;;;;;;;0.70;0.70;;;12.90;77.80;;;15.28;100.00;-21096.94;4983525;28;20439;-70
2021/05/08 08:28:19;;;;;;;0.80;0.60;;;12.90;74.80;;;15.50;100.00;-21102.72;4975968;28;20431;-71
2021/05/08 08:30:47;;;;;;;0.70;0.60;;;12.90;72.20;;;15.11;100.00;-21092.25;4978211;28;20424;-71
2021/05/08 08:33:14;;;;;;;1.27;1.17;;;12.90;74.30;;;15.10;100.00;-21092.13;5000725;28;20447;-69
2021/05/08 08:35:41;;;;;;;0.70;0.60;;;13.10;71.60;;;15.42;100.00;-21100.66;5005902;28;20449;-71
2021/05/08 08:38:08;;;;;;;0.80;0.70;;;13.20;71.90;;;15.82;100.00;-21111.38;5017148;28;20448;-70
2021/05/08 08:40:37;;;;;;;1.37;1.27;;;13.30;68.90;;;16.03;100.00;-21117.00;4999479;28;20422;-70
2021/05/08 08:43:05;;;;;;;0.80;0.70;;;13.60;69.70;;;16.37;100.00;-21126.34;4996416;28;20965;-71
2021/05/08 08:45:33;;;;;;;0.70;0.60;;;13.60;66.40;;;16.00;100.00;-21116.19;4989843;28;20992;-71
2021/05/08 08:48:01;;;;;;;0.80;0.70;;;13.70;64.90;;;16.09;100.00;-21118.81;5004658;28;21030;-70
2021/05/08 08:50:31;;;;;;;0.70;0.60;;;14.10;67.40;;;16.50;100.00;-21129.66;4980021;28;20441;-71
2021/05/08 08:53:00;;;;;;;0.80;0.70;;;14.20;60.30;;;17.21;100.00;-21148.84;4978773;28;20548;-71
2021/05/08 08:55:29;;;;;;;0.70;0.60;;;14.40;60.00;;;16.74;100.00;-21136.25;4996699;28;20508;-71
2021/05/08 08:57:57;;;;;;;0.70;0.63;;;14.20;58.40;;;16.56;100.00;-21131.28;5000084;28;20438;-71
2021/05/08 09:00:24;;;;;;;0.80;0.70;;;13.90;58.40;;;16.19;100.00;-21121.53;4996771;28;20539;-70
2021/05/08 09:02:52;;;;;;;0.70;0.60;;;13.80;58.10;;;16.52;100.00;-21130.19;4999815;28;20431;-70
2021/05/08 09:05:25;;;;;;;0.70;0.60;;;14.00;57.40;;;15.64;100.00;-21106.56;4999261;28;20455;-70
2021/05/08 09:07:59;;;;;;;0.70;0.60;;;14.00;54.30;;;16.28;100.00;-21123.75;5006284;28;20469;-71
2021/05/08 09:10:28;;;;;;;0.70;0.70;;;14.20;54.90;;;16.36;100.00;-21126.06;5013863;28;20494;-70
2021/05/08 09:13:18;;;;;;;0.70;0.60;;;14.40;54.70;;;16.63;100.00;-21133.34;5011258;28;20450;-70
2021/05/08 09:15:48;;;;;;;0.70;0.60;;;14.30;55.70;;;16.88;100.00;-21140.06;4997615;28;20454;-70
2021/05/08 09:18:36;;;;;;;0.73;0.60;;;14.50;53.00;;;17.16;100.00;-21147.50;5002687;28;20446;-71
2021/05/08 09:21:04;;;;;;;0.80;0.70;;;15.20;53.10;;;17.97;100.00;-21169.16;5013202;28;20429;-70
2021/05/08 09:23:36;;;;;;;0.80;0.60;;;15.40;51.10;;;17.80;100.00;-21164.78;5009783;28;20462;-71
2021/05/08 09:26:06;;;;;;;0.70;0.60;;;15.40;47.80;;;17.91;100.00;-21167.50;5000590;28;20533;-71
2021/05/08 09:28:37;;;;;;;0.73;0.63;;;15.00;47.20;;;17.91;100.00;-21167.66;5016107;28;20415;-71
2021/05/08 09:31:07;;;;;;;0.77;0.70;;;15.20;46.10;;;18.04;100.00;-21171.06;4995064;28;20524;-70
2021/05/08 09:33:34;;;;;;;0.80;0.70;;;16.00;49.20;;;18.10;100.00;-21172.72;5006306;28;20442;-70
2021/05/08 09:36:07;;;;;;;0.70;0.60;;;16.20;44.20;;;19.03;100.00;-21197.63;5014137;28;20821;-71
2021/05/08 09:38:37;;;;;;;0.80;0.70;;;16.30;40.10;;;18.14;100.00;-21173.66;4980872;28;20510;-70
2021/05/08 09:41:07;;;;;;;0.70;0.60;;;15.50;38.10;;;18.01;100.00;-21170.38;5016005;28;20442;-70
2021/05/08 09:43:37;;;;;;;0.80;0.70;;;15.60;38.60;;;17.81;100.00;-21165.03;5002757;28;20435;-69
2021/05/08 09:46:08;;;;;;;0.73;0.70;;;15.60;38.50;;;18.20;100.00;-21175.47;5004040;28;20466;-69
2021/05/08 09:48:37;;;;;;;0.77;0.60;;;16.30;37.50;;;19.83;100.00;-21218.97;4992532;28;20773;-69
2021/05/08 09:51:22;;;;;;;0.77;0.60;;;16.90;35.10;;;20.25;100.00;-21230.44;4998274;28;20430;-69
2021/05/08 09:53:50;;;;;;;0.80;0.60;;;17.20;32.70;;;20.21;99.92;-21229.34;4998754;28;20469;-69
2021/05/08 09:56:35;;;;;;;0.70;0.60;;;17.40;31.80;;;21.26;92.61;-21257.19;5001472;28;20795;-70
2021/05/08 09:59:23;;;;;;;0.80;0.60;;;17.80;29.70;;;20.85;86.94;-21246.44;4995918;28;20423;-71
2021/05/08 10:02:10;;;;;;;0.70;0.60;;;17.90;25.50;;;20.35;89.20;-21233.03;5011925;28;20460;-70
2021/05/08 10:04:44;;;;;;;0.70;0.60;;;17.40;24.60;;;20.63;89.06;-21240.41;4989589;28;20870;-69
2021/05/08 10:07:13;;;;;;;0.70;0.60;;;17.60;23.80;;;20.43;86.14;-21235.09;4994602;28;20508;-69
2021/05/08 10:09:42;;;;;;;0.80;0.60;;;17.70;23.00;;;20.53;87.88;-21237.69;4982439;28;20462;-68
2021/05/08 10:12:12;;;;;;;0.70;0.50;;;17.40;22.30;;;20.35;89.66;-21232.91;4994936;28;20496;-70
2021/05/08 10:14:42;;;;;;;0.70;0.60;;;17.20;25.00;;;20.14;92.97;-21227.31;4959302;28;20451;-70
2021/05/08 10:17:19;;;;;;;0.70;0.60;;;17.70;24.00;;;20.82;86.28;-21245.47;4994209;28;20424;-69
2021/05/08 10:19:50;;;;;;;0.70;0.60;;;17.80;21.50;;;19.87;86.86;-21220.19;4992754;28;20432;-70
2021/05/08 10:22:18;;;;;;;0.80;0.70;;;17.50;20.50;;;20.35;87.03;-21233.03;5004534;28;20453;-69